createdAt,value
2023-02-06T00:01:23.382Z,73.43
2023-02-06T00:03:50.040Z,30.17
2023-02-06T00:06:16.915Z,42.03
2023-02-06T00:08:43.669Z,56.58
2023-02-06T00:11:13.350Z,72.13
2023-02-06T00:13:40.035Z,74.97
2023-02-06T00:16:25.358Z,36.22
2023-02-06T00:18:53.237Z,30.15
2023-02-06T00:21:22.030Z,58.65
2023-02-06T00:23:49.813Z,34.85
2023-02-06T00:26:17.243Z,36.30
2023-02-06T00:28:45.059Z,38.88
2023-02-06T00:31:11.951Z,47.38
2023-02-06T00:33:38.688Z,34.42
2023-02-06T00:36:06.399Z,49.08
2023-02-06T00:38:33.354Z,68.38
2023-02-06T00:41:00.104Z,52.33
2023-02-06T00:43:26.809Z,65.55
2023-02-06T00:45:55.028Z,75.25
2023-02-06T00:48:22.169Z,48.28
2023-02-06T00:50:50.240Z,81.38
2023-02-06T00:53:17.117Z,70.35
2023-02-06T00:55:43.824Z,80.35
2023-02-06T00:58:10.665Z,67.43
2023-02-06T01:00:37.294Z,65.75
2023-02-06T01:03:04.021Z,72.30
2023-02-06T01:05:30.635Z,72.85
2023-02-06T01:07:57.232Z,62.88
2023-02-06T01:10:23.985Z,89.38
2023-02-06T01:12:50.711Z,78.95
2023-02-06T01:15:17.350Z,126.22
2023-02-06T01:17:44.003Z,85.88
2023-02-06T01:20:12.902Z,68.10
2023-02-06T01:22:39.701Z,83.55
2023-02-06T01:25:07.063Z,71.85
2023-02-06T01:27:36.581Z,74.30
2023-02-06T01:30:04.614Z,103.60
2023-02-06T01:32:31.256Z,102.28
2023-02-06T01:34:57.863Z,65.93
2023-02-06T01:37:24.531Z,60.55
2023-02-06T01:39:51.191Z,101.50
2023-02-06T01:42:17.883Z,80.72
2023-02-06T01:44:44.608Z,81.25
2023-02-06T01:47:11.430Z,85.40
2023-02-06T01:49:50.866Z,85.45
2023-02-06T01:52:19.815Z,53.55
2023-02-06T01:54:51.115Z,51.90
2023-02-06T01:57:20.215Z,68.85
2023-02-06T01:59:53.175Z,65.65
2023-02-06T02:02:21.062Z,53.92
2023-02-06T02:04:48.328Z,40.42
2023-02-06T02:07:24.156Z,69.10
2023-02-06T02:09:51.673Z,94.90
2023-02-06T02:12:19.209Z,69.80
2023-02-06T02:14:49.023Z,55.92
2023-02-06T02:17:34.759Z,59.67
2023-02-06T02:20:38.920Z,105.07
2023-02-06T02:23:22.472Z,88.57
2023-02-06T02:26:13.517Z,68.50
2023-02-06T02:29:04.389Z,61.90
2023-02-06T02:32:12.572Z,81.97
2023-02-06T02:34:58.798Z,76.25
2023-02-06T02:37:52.143Z,68.03
2023-02-06T02:40:47.882Z,55.47
2023-02-06T02:43:32.768Z,88.68
2023-02-06T02:45:59.379Z,58.28
2023-02-06T02:48:30.435Z,88.18
2023-02-06T02:50:59.860Z,41.72
2023-02-06T02:53:27.707Z,84.82
2023-02-06T02:55:54.841Z,47.90
2023-02-06T02:58:26.305Z,45.60
2023-02-06T03:01:02.297Z,44.03
2023-02-06T03:03:32.438Z,58.05
2023-02-06T03:06:26.511Z,39.55
2023-02-06T03:09:14.928Z,51.30
2023-02-06T03:11:51.043Z,49.63
2023-02-06T03:14:29.019Z,41.83
2023-02-06T03:17:03.332Z,53.45
2023-02-06T03:19:33.612Z,75.18
2023-02-06T03:22:02.580Z,75.65
2023-02-06T03:24:33.930Z,53.90
2023-02-06T03:27:03.511Z,53.72
2023-02-06T03:29:33.757Z,51.78
2023-02-06T03:32:32.778Z,54.97
2023-02-06T03:35:20.375Z,80.53
2023-02-06T03:37:48.472Z,69.80
2023-02-06T03:40:16.236Z,44.53
2023-02-06T03:42:50.296Z,47.72
2023-02-06T03:45:45.367Z,43.83
2023-02-06T03:48:18.241Z,70.03
2023-02-06T03:50:47.850Z,117.57
2023-02-06T03:53:16.038Z,102.75
2023-02-06T03:55:44.651Z,77.22
2023-02-06T03:58:13.911Z,75.22
2023-02-06T04:00:42.868Z,36.50
2023-02-06T04:03:11.185Z,55.85
2023-02-06T04:05:38.654Z,46.13
2023-02-06T04:08:05.813Z,46.00
2023-02-06T04:10:32.598Z,66.72
2023-02-06T04:12:59.269Z,60.17
2023-02-06T04:15:26.119Z,44.42
2023-02-06T04:18:00.324Z,60.08
2023-02-06T04:20:29.257Z,42.17
2023-02-06T04:22:56.401Z,70.47
2023-02-06T04:25:23.239Z,54.85
2023-02-06T04:27:50.264Z,45.33
2023-02-06T04:30:18.089Z,52.17
2023-02-06T04:32:44.861Z,49.25
2023-02-06T04:35:11.967Z,52.33
2023-02-06T04:37:38.851Z,47.45
2023-02-06T04:40:06.078Z,31.80
2023-02-06T04:42:32.806Z,46.67
2023-02-06T04:44:59.626Z,39.08
2023-02-06T04:47:26.325Z,40.70
2023-02-06T04:49:52.975Z,39.72
2023-02-06T04:52:19.784Z,33.28
2023-02-06T04:54:46.425Z,30.65
2023-02-06T04:57:13.091Z,38.92
2023-02-06T04:59:39.754Z,40.58
2023-02-06T05:02:06.434Z,29.52
2023-02-06T05:04:33.187Z,42.63
2023-02-06T05:06:59.835Z,33.58
2023-02-06T05:09:26.654Z,53.72
2023-02-06T05:11:53.309Z,38.67
2023-02-06T05:14:19.942Z,52.20
2023-02-06T05:16:46.579Z,89.10
2023-02-06T05:19:13.419Z,67.95
2023-02-06T05:21:40.076Z,68.20
2023-02-06T05:24:06.837Z,86.68
2023-02-06T05:26:33.535Z,54.22
2023-02-06T05:29:00.178Z,56.85
2023-02-06T05:31:26.868Z,39.92
2023-02-06T05:33:54.956Z,47.85
2023-02-06T05:36:22.893Z,60.15
2023-02-06T05:38:52.703Z,48.72
2023-02-06T05:41:19.337Z,71.93
2023-02-06T05:43:46.032Z,61.03
2023-02-06T05:46:13.404Z,56.95
2023-02-06T05:48:40.607Z,89.68
2023-02-06T05:51:07.282Z,77.38
2023-02-06T05:53:34.092Z,64.13
2023-02-06T05:56:00.853Z,56.42
2023-02-06T05:58:27.738Z,49.70
2023-02-06T06:00:54.453Z,62.83
2023-02-06T06:03:21.105Z,42.85
2023-02-06T06:05:48.451Z,48.88
2023-02-06T06:08:15.497Z,39.35
2023-02-06T06:10:42.164Z,54.72
2023-02-06T06:13:08.848Z,44.63
2023-02-06T06:15:35.798Z,50.72
2023-02-06T06:18:03.161Z,86.53
2023-02-06T06:20:29.890Z,44.63
2023-02-06T06:22:56.548Z,57.15
2023-02-06T06:25:23.248Z,62.70
2023-02-06T06:27:49.937Z,70.32
2023-02-06T06:30:16.815Z,97.25
2023-02-06T06:32:43.463Z,60.30
2023-02-06T06:35:10.174Z,46.22
2023-02-06T06:37:36.926Z,77.05
2023-02-06T06:40:04.170Z,53.78
2023-02-06T06:42:30.969Z,80.15
2023-02-06T06:44:57.739Z,37.08
2023-02-06T06:47:25.365Z,58.00
2023-02-06T06:49:52.086Z,67.95
2023-02-06T06:52:24.742Z,41.58
2023-02-06T06:54:52.698Z,59.78
2023-02-06T06:57:20.400Z,54.33
2023-02-06T06:59:47.120Z,46.75
2023-02-06T07:02:14.572Z,42.67
2023-02-06T07:04:41.508Z,34.65
2023-02-06T07:07:08.342Z,37.70
2023-02-06T07:09:35.085Z,45.67
2023-02-06T07:12:01.765Z,48.38
2023-02-06T07:14:28.425Z,40.65
2023-02-06T07:16:56.186Z,35.85
2023-02-06T07:19:23.302Z,34.13
2023-02-06T07:21:50.132Z,30.38
2023-02-06T07:24:16.902Z,27.60
2023-02-06T07:26:43.667Z,27.60
2023-02-06T07:29:10.529Z,29.55
2023-02-06T07:31:37.258Z,28.30
2023-02-06T07:34:04.206Z,31.35
2023-02-06T07:36:30.862Z,28.33
2023-02-06T07:38:57.764Z,27.83
2023-02-06T07:41:24.454Z,27.65
2023-02-06T07:43:51.143Z,27.00
2023-02-06T07:46:17.927Z,24.52
2023-02-06T07:48:44.551Z,22.80
2023-02-06T07:51:11.205Z,26.17
2023-02-06T07:53:38.429Z,25.38
2023-02-06T07:56:16.573Z,38.33
2023-02-06T07:58:43.992Z,25.05
2023-02-06T08:01:11.234Z,25.20
2023-02-06T08:03:38.328Z,24.92
2023-02-06T08:06:12.901Z,24.17
2023-02-06T08:08:39.690Z,26.77
2023-02-06T08:11:12.374Z,25.13
2023-02-06T08:13:39.251Z,28.67
2023-02-06T08:16:17.518Z,24.00
2023-02-06T08:18:44.363Z,23.90
2023-02-06T08:21:14.094Z,23.67
2023-02-06T08:23:41.406Z,22.23
2023-02-06T08:26:09.478Z,22.70
2023-02-06T08:28:37.370Z,18.92
2023-02-06T08:31:14.232Z,20.10
2023-02-06T08:33:41.727Z,20.63
2023-02-06T08:36:09.497Z,23.23
2023-02-06T08:38:36.750Z,21.00
2023-02-06T08:41:04.026Z,20.77
2023-02-06T08:43:33.016Z,21.25
2023-02-06T08:45:59.893Z,26.00
2023-02-06T08:48:27.030Z,21.10
2023-02-06T08:51:04.402Z,20.83
2023-02-06T08:53:31.173Z,22.42
2023-02-06T08:56:03.632Z,20.70
2023-02-06T08:58:30.862Z,21.60
2023-02-06T09:00:58.158Z,18.08
2023-02-06T09:03:24.841Z,18.67
2023-02-06T09:05:52.687Z,18.38
2023-02-06T09:08:20.996Z,19.17
2023-02-06T09:10:47.940Z,18.98
2023-02-06T09:13:15.332Z,22.00
2023-02-06T09:15:43.205Z,15.73
2023-02-06T09:18:09.962Z,14.80
2023-02-06T09:20:36.663Z,13.98
2023-02-06T09:23:03.364Z,19.80
2023-02-06T09:25:30.070Z,15.40
2023-02-06T09:27:57.174Z,17.65
2023-02-06T09:30:24.001Z,15.63
2023-02-06T09:32:50.711Z,14.27
2023-02-06T09:35:17.426Z,14.90
2023-02-06T09:37:44.148Z,13.18
2023-02-06T09:40:13.512Z,12.20
2023-02-06T09:42:41.756Z,12.02
2023-02-06T09:45:24.207Z,11.02
2023-02-06T09:47:58.260Z,12.52
2023-02-06T09:50:48.957Z,12.95
2023-02-06T09:53:15.530Z,12.07
2023-02-06T09:55:46.367Z,14.80
2023-02-06T09:58:27.802Z,12.10
2023-02-06T10:01:00.430Z,11.27
2023-02-06T10:03:45.970Z,15.77
2023-02-06T10:06:20.833Z,11.57
2023-02-06T10:09:14.052Z,12.18
2023-02-06T10:11:49.035Z,10.23
2023-02-06T10:14:24.289Z,9.93
2023-02-06T10:17:04.982Z,10.20
2023-02-06T10:19:56.661Z,8.68
2023-02-06T10:22:45.029Z,8.70
2023-02-06T10:25:32.107Z,8.05
2023-02-06T10:28:02.867Z,8.75
2023-02-06T10:30:57.955Z,8.10
2023-02-06T10:33:49.793Z,8.52
2023-02-06T10:36:31.457Z,8.23
2023-02-06T10:39:30.414Z,6.07
2023-02-06T10:42:16.654Z,8.80
2023-02-06T10:45:18.405Z,7.68
2023-02-06T10:48:10.509Z,6.47
2023-02-06T10:50:48.467Z,6.40
2023-02-06T10:53:24.033Z,6.68
2023-02-06T10:55:59.617Z,7.15
2023-02-06T10:58:35.605Z,6.63
2023-02-06T11:01:13.902Z,4.90
2023-02-06T11:04:20.020Z,5.20
2023-02-06T11:06:46.982Z,5.85
2023-02-06T11:09:14.639Z,4.78
2023-02-06T11:11:51.257Z,5.68
2023-02-06T11:14:20.660Z,5.25
2023-02-06T11:16:47.633Z,5.63
2023-02-06T11:19:26.586Z,4.70
2023-02-06T11:22:07.151Z,8.25
2023-02-06T11:24:34.966Z,6.85
2023-02-06T11:27:11.824Z,6.47
2023-02-06T11:29:45.548Z,5.72
2023-02-06T11:32:34.146Z,5.78
2023-02-06T11:35:28.284Z,5.13
2023-02-06T11:38:05.569Z,4.95
2023-02-06T11:40:32.343Z,4.68
2023-02-06T11:43:21.966Z,6.13
2023-02-06T11:45:52.170Z,5.05
2023-02-06T11:48:39.696Z,6.07
2023-02-06T11:51:08.802Z,5.20
2023-02-06T11:53:36.795Z,4.82
2023-02-06T11:56:20.576Z,4.03
2023-02-06T11:59:00.536Z,4.35
2023-02-06T12:01:27.200Z,4.55
2023-02-06T12:03:58.476Z,4.78
2023-02-06T12:06:30.236Z,5.60
2023-02-06T12:08:59.973Z,4.15
2023-02-06T12:11:33.109Z,3.40
2023-02-06T12:14:34.293Z,4.70
2023-02-06T12:17:03.521Z,3.83
2023-02-06T12:19:36.078Z,3.83
2023-02-06T12:22:15.716Z,4.00
2023-02-06T12:24:45.995Z,3.90
2023-02-06T12:27:38.319Z,4.00
2023-02-06T12:30:57.326Z,3.40
2023-02-06T12:33:35.186Z,4.38
2023-02-06T12:36:12.854Z,4.15
2023-02-06T12:39:01.949Z,4.18
2023-02-06T12:41:34.771Z,4.38
2023-02-06T12:44:28.079Z,4.13
2023-02-06T12:47:01.150Z,4.10
2023-02-06T12:50:15.817Z,3.90
2023-02-06T12:52:55.955Z,5.53
2023-02-06T12:55:35.441Z,3.50
2023-02-06T12:58:04.663Z,5.80
2023-02-06T13:01:00.050Z,4.40
2023-02-06T13:03:45.428Z,4.88
2023-02-06T13:06:20.178Z,4.68
2023-02-06T13:09:00.571Z,4.45
2023-02-06T13:11:39.100Z,5.78
2023-02-06T13:14:23.073Z,4.40
2023-02-06T13:17:11.779Z,4.53
2023-02-06T13:19:41.418Z,4.03
2023-02-06T13:22:08.095Z,5.63
2023-02-06T13:24:38.935Z,4.85
2023-02-06T13:27:08.430Z,4.50
2023-02-06T13:30:02.525Z,4.63
2023-02-06T13:32:30.613Z,3.72
2023-02-06T13:35:13.246Z,3.80
2023-02-06T13:37:47.867Z,4.05
2023-02-06T13:40:24.016Z,4.43
2023-02-06T13:43:13.746Z,4.60
2023-02-06T13:46:05.093Z,4.50
2023-02-06T13:48:59.510Z,3.60
2023-02-06T13:51:50.939Z,3.25
2023-02-06T13:54:35.723Z,4.53
2023-02-06T13:57:40.026Z,4.20
2023-02-06T14:00:15.761Z,3.47
2023-02-06T14:03:04.069Z,3.85
2023-02-06T14:05:59.050Z,3.42
2023-02-06T14:09:10.016Z,3.90
2023-02-06T14:11:39.633Z,3.30
2023-02-06T14:14:18.035Z,4.10
2023-02-06T14:17:09.560Z,3.10
2023-02-06T14:20:05.992Z,3.35
2023-02-06T14:22:52.489Z,2.65
2023-02-06T14:25:47.440Z,3.25
2023-02-06T14:28:38.418Z,3.22
2023-02-06T14:31:17.508Z,2.50
2023-02-06T14:34:15.599Z,2.28
2023-02-06T14:37:10.263Z,2.70
2023-02-06T14:39:42.892Z,2.50
2023-02-06T14:42:18.784Z,3.03
2023-02-06T14:44:51.181Z,3.67
2023-02-06T14:47:26.072Z,2.47
2023-02-06T14:49:54.020Z,3.72
2023-02-06T14:52:25.050Z,2.75
2023-02-06T14:54:52.406Z,2.85
2023-02-06T14:57:31.272Z,4.90
2023-02-06T15:00:16.716Z,3.13
2023-02-06T15:02:43.453Z,4.45
2023-02-06T15:05:24.702Z,6.43
2023-02-06T15:08:05.822Z,4.72
2023-02-06T15:10:37.518Z,3.22
2023-02-06T15:13:04.860Z,3.17
2023-02-06T15:15:33.600Z,3.00
2023-02-06T15:18:15.425Z,2.50
2023-02-06T15:20:51.805Z,2.35
2023-02-06T15:23:50.635Z,2.78
2023-02-06T15:26:38.196Z,3.00
2023-02-06T15:29:17.538Z,5.32
2023-02-06T15:31:49.324Z,4.95
2023-02-06T15:34:19.651Z,4.15
2023-02-06T15:36:46.421Z,3.90
2023-02-06T15:39:14.675Z,3.50
2023-02-06T15:41:43.164Z,8.63
2023-02-06T15:44:17.843Z,5.80
2023-02-06T15:46:46.043Z,5.45
2023-02-06T15:49:37.020Z,5.50
2023-02-06T15:52:04.922Z,3.75
2023-02-06T15:54:32.113Z,5.20
2023-02-06T15:57:17.261Z,5.25
2023-02-06T15:59:44.950Z,4.65
2023-02-06T16:02:33.154Z,4.45
2023-02-06T16:05:01.388Z,4.15
2023-02-06T16:07:32.276Z,5.68
2023-02-06T16:10:07.320Z,3.13
2023-02-06T16:12:39.739Z,4.20
2023-02-06T16:15:33.266Z,3.55
2023-02-06T16:18:02.686Z,7.28
2023-02-06T16:20:32.317Z,6.53
2023-02-06T16:23:17.929Z,8.05
2023-02-06T16:25:58.547Z,5.15
2023-02-06T16:28:27.227Z,9.95
2023-02-06T16:31:03.072Z,4.13
2023-02-06T16:33:32.952Z,8.27
2023-02-06T16:36:00.134Z,3.30
2023-02-06T16:38:27.011Z,4.03
2023-02-06T16:40:53.807Z,4.28
2023-02-06T16:43:20.640Z,3.00
2023-02-06T16:45:49.011Z,3.28
2023-02-06T16:48:17.564Z,2.42
2023-02-06T16:50:45.647Z,2.58
2023-02-06T16:53:20.167Z,3.50
2023-02-06T16:55:47.307Z,3.30
2023-02-06T16:58:20.947Z,3.45
2023-02-06T17:00:48.048Z,4.07
2023-02-06T17:03:17.392Z,4.28
2023-02-06T17:05:45.739Z,3.42
2023-02-06T17:08:18.458Z,3.17
2023-02-06T17:10:46.753Z,3.10
2023-02-06T17:13:24.407Z,3.55
2023-02-06T17:15:54.911Z,4.95
2023-02-06T17:18:22.871Z,3.88
2023-02-06T17:20:52.773Z,5.10
2023-02-06T17:23:20.411Z,7.43
2023-02-06T17:25:47.197Z,6.45
2023-02-06T17:28:16.709Z,12.02
2023-02-06T17:30:44.520Z,17.77
2023-02-06T17:33:11.747Z,14.35
2023-02-06T17:35:38.968Z,7.32
2023-02-06T17:38:07.468Z,5.75
2023-02-06T17:40:36.202Z,13.65
2023-02-06T17:43:04.620Z,17.70
2023-02-06T17:45:31.931Z,11.50
2023-02-06T17:47:58.700Z,11.00
2023-02-06T17:50:27.278Z,8.02
2023-02-06T17:52:55.753Z,11.05
2023-02-06T17:55:24.022Z,7.13
2023-02-06T17:57:50.986Z,7.57
2023-02-06T18:00:20.331Z,4.32
2023-02-06T18:02:47.126Z,4.53
2023-02-06T18:05:13.927Z,3.53
2023-02-06T18:07:41.221Z,4.22
2023-02-06T18:10:09.372Z,4.30
2023-02-06T18:12:36.031Z,4.95
2023-02-06T18:15:03.608Z,11.13
2023-02-06T18:17:31.067Z,22.65
2023-02-06T18:19:57.968Z,13.40
2023-02-06T18:22:24.737Z,6.50
2023-02-06T18:24:51.518Z,4.30
2023-02-06T18:27:19.649Z,4.55
2023-02-06T18:29:50.165Z,4.28
2023-02-06T18:32:18.699Z,4.43
2023-02-06T18:34:45.926Z,4.32
2023-02-06T18:37:12.713Z,5.53
2023-02-06T18:39:39.651Z,9.35
2023-02-06T18:42:25.206Z,20.77
2023-02-06T18:44:51.983Z,11.25
2023-02-06T18:47:19.720Z,16.52
2023-02-06T18:49:46.751Z,17.83
2023-02-06T18:52:13.806Z,6.80
2023-02-06T18:54:40.800Z,7.25
2023-02-06T18:57:07.716Z,5.80
2023-02-06T18:59:35.173Z,5.88
2023-02-06T19:02:02.722Z,5.00
2023-02-06T19:04:29.776Z,6.18
2023-02-06T19:06:56.603Z,5.38
2023-02-06T19:09:23.442Z,5.60
2023-02-06T19:11:50.167Z,5.07
2023-02-06T19:14:22.374Z,5.57
2023-02-06T19:16:50.713Z,4.97
2023-02-06T19:19:17.657Z,5.13
2023-02-06T19:21:44.934Z,5.15
2023-02-06T19:24:14.120Z,5.65
2023-02-06T19:26:41.912Z,5.82
2023-02-06T19:29:08.904Z,5.57
2023-02-06T19:31:39.050Z,6.00
2023-02-06T19:34:06.064Z,6.93
2023-02-06T19:36:33.231Z,5.82
2023-02-06T19:39:02.559Z,6.45
2023-02-06T19:41:31.323Z,5.70
2023-02-06T19:44:02.082Z,5.18
2023-02-06T19:46:28.785Z,5.22
2023-02-06T19:48:56.386Z,6.55
2023-02-06T19:51:34.667Z,6.03
2023-02-06T19:54:01.751Z,9.77
2023-02-06T19:56:32.896Z,13.07
2023-02-06T19:59:01.912Z,8.15
2023-02-06T20:01:30.312Z,8.63
2023-02-06T20:03:59.778Z,15.77
2023-02-06T20:06:28.364Z,14.32
2023-02-06T20:08:56.859Z,10.70
2023-02-06T20:11:23.647Z,8.98
2023-02-06T20:13:55.455Z,13.60
2023-02-06T20:16:24.884Z,9.57
2023-02-06T20:18:52.327Z,6.63
2023-02-06T20:21:29.488Z,7.35
2023-02-06T20:23:57.802Z,6.07
2023-02-06T20:26:28.838Z,5.90
2023-02-06T20:28:55.980Z,6.43
2023-02-06T20:31:23.416Z,6.20
2023-02-06T20:33:50.490Z,5.43
2023-02-06T20:36:19.904Z,5.68
2023-02-06T20:38:51.128Z,6.15
2023-02-06T20:41:19.109Z,6.43
2023-02-06T20:43:47.971Z,6.18
2023-02-06T20:46:19.526Z,6.05
2023-02-06T20:48:52.030Z,7.50
2023-02-06T20:51:18.802Z,6.97
2023-02-06T20:53:45.443Z,7.10
2023-02-06T20:56:14.569Z,6.35
2023-02-06T20:58:42.098Z,10.18
2023-02-06T21:01:24.814Z,8.15
2023-02-06T21:03:54.803Z,6.47
2023-02-06T21:06:22.084Z,6.28
2023-02-06T21:08:57.405Z,8.23
2023-02-06T21:11:29.270Z,6.43
2023-02-06T21:13:58.142Z,8.80
2023-02-06T21:16:26.355Z,12.25
2023-02-06T21:18:53.674Z,6.95
2023-02-06T21:21:21.166Z,6.75
2023-02-06T21:23:47.918Z,7.32
2023-02-06T21:26:17.350Z,6.10
2023-02-06T21:28:46.049Z,7.70
2023-02-06T21:31:36.893Z,5.80
2023-02-06T21:34:12.370Z,5.05
2023-02-06T21:36:39.872Z,6.22
2023-02-06T21:39:07.247Z,6.47
2023-02-06T21:41:34.920Z,5.40
2023-02-06T21:44:02.185Z,5.28
2023-02-06T21:46:31.842Z,5.43
2023-02-06T21:48:58.505Z,4.80
2023-02-06T21:51:25.285Z,6.10
2023-02-06T21:53:51.996Z,5.85
2023-02-06T21:56:21.911Z,5.75
2023-02-06T21:58:49.202Z,5.55
2023-02-06T22:01:18.313Z,5.25
2023-02-06T22:03:46.038Z,5.38
2023-02-06T22:06:13.637Z,5.25
2023-02-06T22:08:43.006Z,4.97
2023-02-06T22:11:16.600Z,5.45
2023-02-06T22:13:44.176Z,5.30
2023-02-06T22:16:13.086Z,5.18
2023-02-06T22:18:40.625Z,5.75
2023-02-06T22:21:12.983Z,5.18
2023-02-06T22:23:41.121Z,5.65
2023-02-06T22:26:09.418Z,4.85
2023-02-06T22:28:36.127Z,5.63
2023-02-06T22:31:18.572Z,5.45
2023-02-06T22:36:18.021Z,5.75
2023-02-06T22:38:45.827Z,6.18
2023-02-06T22:41:15.801Z,5.43
2023-02-06T22:43:44.223Z,5.80
2023-02-06T22:46:27.636Z,5.70
2023-02-06T22:48:55.071Z,5.35
2023-02-06T22:51:22.227Z,5.80
2023-02-06T22:53:49.284Z,6.05
2023-02-06T22:56:31.766Z,6.55
2023-02-06T23:01:46.141Z,6.57
2023-02-06T23:04:24.272Z,6.10
2023-02-06T23:06:51.297Z,6.63
2023-02-06T23:09:24.063Z,6.00
2023-02-06T23:11:51.692Z,5.97
2023-02-06T23:14:19.568Z,6.32
2023-02-06T23:16:47.318Z,5.97
2023-02-06T23:19:15.490Z,6.55
2023-02-06T23:21:43.763Z,6.07
2023-02-06T23:24:11.394Z,5.60
2023-02-06T23:26:40.288Z,7.75
2023-02-06T23:29:08.420Z,6.10
2023-02-06T23:31:36.255Z,5.75
2023-02-06T23:34:03.202Z,7.20
2023-02-06T23:36:30.055Z,6.65
2023-02-06T23:38:56.826Z,6.30
2023-02-06T23:41:26.350Z,7.03
2023-02-06T23:43:58.867Z,6.28
2023-02-06T23:46:26.924Z,7.70
2023-02-06T23:48:53.873Z,7.45
2023-02-06T23:51:21.595Z,8.15
2023-02-06T23:53:49.111Z,7.55
2023-02-06T23:56:25.555Z,7.70
2023-02-06T23:58:53.778Z,7.18
